Time;durP1;ratioP1;P1;durP2;ratioP2;P2;SDS_P1;SDS_P2;PMS_P1;PMS_P2;Temp;Humidity;BMP_temperature;BMP_pressure;BME280_temperature;BME280_humidity;BME280_pressure;Samples;Min_cycle;Max_cycle;Signal;HPM_P1;HPM_P2
2022/02/08 00:00:41;;;;;;;7.77;6.00;;;1.00;99.90;;;1.69;91.31;99374.31;5162903;28;20202;-68
2022/02/08 00:03:16;;;;;;;7.50;5.63;;;1.00;99.90;;;1.71;91.02;99375.38;5164720;28;20196;-68
2022/02/08 00:06:01;;;;;;;9.93;5.80;;;1.00;99.90;;;1.72;90.88;99376.31;5163494;28;20202;-69
2022/02/08 00:08:36;;;;;;;6.83;5.50;;;0.90;99.90;;;1.72;90.73;99379.72;5163681;28;20612;-68
2022/02/08 00:11:09;;;;;;;7.63;5.73;;;0.90;99.90;;;1.66;89.54;99386.56;5161553;28;20213;-68
2022/02/08 00:13:42;;;;;;;10.63;5.93;;;0.90;99.90;;;1.64;90.66;99377.94;5163987;28;20279;-68
2022/02/08 00:16:15;;;;;;;6.67;4.70;;;0.80;99.90;;;1.60;90.47;99382.41;5163789;28;20217;-68
2022/02/08 00:18:49;;;;;;;6.57;5.40;;;0.80;99.90;;;1.55;91.15;99366.78;5164222;28;20224;-68
2022/02/08 00:21:22;;;;;;;8.00;5.27;;;0.80;99.90;;;1.54;90.87;99377.56;5163178;28;20206;-68
2022/02/08 00:23:57;;;;;;;9.23;6.20;;;0.70;99.90;;;1.52;90.64;99376.50;5161113;28;20302;-68
2022/02/08 00:26:30;;;;;;;6.90;5.40;;;0.70;99.90;;;1.47;90.92;99370.03;5162045;28;21388;-69
2022/02/08 00:29:05;;;;;;;8.60;5.40;;;0.70;99.90;;;1.38;90.07;99366.44;5163393;28;20722;-68
2022/02/08 00:31:38;;;;;;;8.80;5.60;;;0.60;99.90;;;1.34;90.24;99372.72;5164617;28;20212;-68
2022/02/08 00:34:11;;;;;;;6.70;6.10;;;0.60;99.90;;;1.32;90.72;99366.63;5163401;28;20329;-68
2022/02/08 00:36:44;;;;;;;7.73;5.23;;;0.60;99.90;;;1.34;90.88;99365.16;5163447;28;20592;-69
2022/02/08 00:39:19;;;;;;;7.57;5.73;;;0.60;99.90;;;1.37;90.33;99367.16;5163194;28;20205;-69
2022/02/08 00:41:52;;;;;;;9.40;5.77;;;0.60;99.90;;;1.32;90.22;99374.19;5161553;28;20206;-68
2022/02/08 00:44:32;;;;;;;8.83;5.70;;;0.60;99.90;;;1.29;90.46;99379.75;5164170;28;20689;-69
2022/02/08 00:47:17;;;;;;;8.93;6.07;;;0.60;99.90;;;1.33;91.43;99381.91;5163123;28;20208;-68
2022/02/08 00:49:51;;;;;;;7.73;5.50;;;0.60;99.90;;;1.15;89.10;99377.25;5163250;28;20216;-69
2022/02/08 00:52:24;;;;;;;8.57;5.50;;;0.50;99.90;;;1.20;89.98;99371.09;5162408;28;20204;-68
2022/02/08 00:54:58;;;;;;;8.33;5.40;;;0.50;99.90;;;1.25;90.46;99375.06;5162331;28;20567;-69
2022/02/08 00:57:31;;;;;;;7.83;5.47;;;0.60;99.90;;;1.27;90.07;99393.78;5161829;28;20211;-70
2022/02/08 01:00:07;;;;;;;9.20;5.27;;;0.60;99.90;;;1.33;89.69;99388.56;5162625;28;20652;-68
2022/02/08 01:02:41;;;;;;;9.30;5.00;;;0.60;99.90;;;1.42;90.49;99388.75;5160880;28;20197;-69
2022/02/08 01:05:15;;;;;;;9.23;5.17;;;0.70;99.90;;;1.53;89.46;99395.94;5163241;28;20245;-68
2022/02/08 01:07:48;;;;;;;5.57;4.90;;;0.80;99.90;;;1.49;88.97;99396.31;5162631;28;20202;-68
2022/02/08 01:10:24;;;;;;;9.80;5.33;;;0.90;99.90;;;1.58;90.14;99392.34;5160648;28;20686;-69
2022/02/08 01:12:57;;;;;;;5.37;4.80;;;0.90;99.90;;;1.61;89.59;99392.69;5161606;28;20204;-69
2022/02/08 01:15:31;;;;;;;7.67;5.30;;;0.90;99.90;;;1.64;90.09;99390.53;5162876;28;20215;-69
2022/02/08 01:18:06;;;;;;;7.23;5.63;;;0.90;99.90;;;1.61;90.09;99390.16;5162862;28;20203;-66
2022/02/08 01:20:39;;;;;;;8.33;5.27;;;0.90;99.90;;;1.65;90.43;99384.75;5163285;28;20518;-69
2022/02/08 01:23:12;;;;;;;7.27;5.43;;;0.90;99.90;;;1.57;89.68;99388.00;5162674;28;20551;-67
2022/02/08 01:25:50;;;;;;;11.90;5.77;;;0.80;99.90;;;1.51;89.42;99387.28;5161578;28;20199;-67
2022/02/08 01:28:32;;;;;;;7.10;5.20;;;0.80;99.90;;;1.56;89.16;99378.66;5161094;28;20204;-67
2022/02/08 01:31:08;;;;;;;5.20;4.70;;;0.80;99.90;;;1.54;89.11;99380.09;5162034;28;20226;-67
2022/02/08 01:36:40;;;;;;;6.27;5.03;;;0.90;99.90;;;1.59;88.73;99379.00;5157836;28;20206;-67
2022/02/08 01:39:20;;;;;;;7.23;5.30;;;0.90;99.90;;;1.63;90.08;99380.25;5165803;28;20579;-67
2022/02/08 01:42:18;;;;;;;5.77;5.20;;;0.90;99.90;;;1.67;90.32;99382.44;5163092;28;20234;-67
2022/02/08 01:45:08;;;;;;;5.57;4.67;;;0.90;99.90;;;1.67;90.52;99378.28;5160435;28;20230;-67
2022/02/08 01:47:48;;;;;;;8.50;5.10;;;1.00;99.90;;;1.67;89.39;99379.91;5164064;28;20581;-67
2022/02/08 01:50:21;;;;;;;7.07;4.87;;;1.00;99.90;;;1.69;89.40;99376.84;5161752;28;20210;-67
2022/02/08 01:52:54;;;;;;;8.17;4.97;;;1.00;99.90;;;1.76;89.35;99378.44;5161953;28;20211;-69
2022/02/08 01:55:27;;;;;;;6.97;5.03;;;1.10;99.90;;;1.78;88.81;99367.81;5160933;28;20235;-67
2022/02/08 01:58:22;;;;;;;8.27;5.07;;;1.10;99.90;;;1.84;88.02;99376.81;5162162;28;20210;-67
2022/02/08 02:00:56;;;;;;;9.47;4.90;;;1.10;99.90;;;1.83;86.47;99370.84;5163273;28;20718;-67
2022/02/08 02:03:29;;;;;;;7.20;4.50;;;1.10;99.90;;;1.91;86.97;99364.16;5162103;28;20234;-66
2022/02/08 02:06:03;;;;;;;7.07;4.33;;;1.20;99.90;;;1.92;87.34;99366.00;5161873;28;20203;-67
2022/02/08 02:08:36;;;;;;;5.70;4.13;;;1.20;99.90;;;1.90;87.49;99363.28;5164661;28;20571;-67
2022/02/08 03:39:14;;;;;;;10.20;4.30;;;1.40;99.90;;;2.18;85.86;99368.97;5158207;28;20232;-69
2022/02/08 03:41:52;;;;;;;8.47;4.40;;;1.50;99.90;;;2.15;85.44;99368.63;5161945;28;20194;-68
2022/02/08 03:44:31;;;;;;;6.60;4.33;;;1.50;99.90;;;2.18;85.65;99367.34;5163925;28;20233;-69
2022/02/08 03:47:07;;;;;;;5.43;4.33;;;1.50;99.90;;;2.24;84.96;99368.03;5164279;28;20291;-69
2022/02/08 03:49:41;;;;;;;5.50;4.93;;;1.50;99.90;;;2.25;85.17;99372.31;5161620;28;20191;-70
2022/02/08 03:52:14;;;;;;;5.90;4.33;;;1.60;99.90;;;2.24;85.73;99365.50;5157084;28;20201;-68
2022/02/08 03:54:48;;;;;;;6.17;4.40;;;1.50;99.90;;;2.22;85.10;99366.03;5161254;28;20222;-69
2022/02/08 03:57:23;;;;;;;6.83;4.83;;;1.50;99.90;;;2.19;85.53;99369.13;5164567;28;20202;-68
2022/02/08 03:59:56;;;;;;;8.90;4.83;;;1.40;99.90;;;2.18;85.53;99362.28;5162892;28;20213;-68
2022/02/08 04:02:39;;;;;;;7.63;5.30;;;1.40;99.90;;;2.14;85.37;99372.72;5157806;28;20199;-69
2022/02/08 04:05:19;;;;;;;4.83;4.40;;;1.40;99.90;;;2.14;84.60;99370.22;5163724;28;20247;-69
2022/02/08 04:07:55;;;;;;;5.67;4.23;;;1.40;99.90;;;2.12;84.89;99371.69;5163467;28;20546;-69
2022/02/08 04:10:30;;;;;;;5.57;3.97;;;1.40;99.90;;;2.16;84.48;99368.78;5160611;28;20677;-69
2022/02/08 04:13:11;;;;;;;6.50;4.20;;;1.40;99.90;;;2.18;83.75;99369.84;5161788;28;20585;-69
2022/02/08 04:16:03;;;;;;;7.07;4.07;;;1.40;99.90;;;2.14;83.66;99364.28;5160204;28;20205;-69
2022/02/08 04:18:48;;;;;;;6.30;3.93;;;1.40;99.90;;;2.16;82.98;99363.72;5158907;28;20202;-69
2022/02/08 04:33:02;;;;;;;6.40;4.00;;;1.60;99.90;;;2.38;83.66;99371.22;5159931;28;20256;-69
2022/02/08 04:35:44;;;;;;;6.47;4.10;;;1.70;99.90;;;2.42;82.89;99374.25;5163429;28;20198;-69
2022/02/08 04:38:30;;;;;;;5.23;3.93;;;1.70;99.90;;;2.50;82.04;99359.97;5159458;28;20202;-69
2022/02/08 04:41:07;;;;;;;8.07;4.10;;;1.80;99.90;;;2.56;81.71;99375.78;5160604;28;20671;-69
2022/02/08 04:43:51;;;;;;;6.67;4.17;;;1.80;99.90;;;2.71;82.29;99362.34;5157994;28;20237;-69
2022/02/08 04:46:38;;;;;;;8.67;4.00;;;1.90;99.90;;;2.84;80.38;99369.69;5162067;28;20218;-69
2022/02/08 04:49:11;;;;;;;5.43;3.73;;;2.00;99.90;;;2.83;80.08;99372.03;5160764;28;20222;-69
2022/02/08 04:51:49;;;;;;;5.67;4.20;;;2.10;99.90;;;2.96;80.41;99365.09;5163068;28;20246;-69
2022/02/08 04:54:28;;;;;;;4.47;3.90;;;2.20;99.90;;;3.09;78.54;99369.84;5162551;28;20229;-69
2022/02/08 04:57:11;;;;;;;7.30;4.30;;;2.30;99.90;;;3.14;78.28;99367.09;5163679;28;20570;-67
2022/02/08 05:42:32;;;;;;;9.43;3.50;;;2.50;99.90;;;3.14;76.83;99363.69;5164226;28;20196;-69
2022/02/08 05:45:14;;;;;;;4.63;3.20;;;2.50;99.90;;;3.22;78.12;99372.13;5165887;28;20219;-69
2022/02/08 05:47:51;;;;;;;6.67;3.63;;;2.50;99.90;;;3.30;76.83;99362.13;5165575;28;20536;-69
2022/02/08 05:50:38;;;;;;;5.53;3.83;;;2.60;99.90;;;3.31;75.39;99360.47;5164853;28;20512;-69
2022/02/08 05:53:27;;;;;;;5.97;3.33;;;2.60;99.90;;;3.29;77.04;99361.94;5162883;28;20200;-67
2022/02/08 05:56:00;;;;;;;7.03;3.30;;;2.60;99.90;;;3.38;77.28;99368.03;5163095;28;20290;-69
2022/02/08 05:58:33;;;;;;;8.10;3.50;;;2.70;99.90;;;3.50;75.51;99356.72;5163535;28;20208;-70
2022/02/08 06:01:06;;;;;;;6.17;3.40;;;2.70;99.90;;;3.41;76.11;99359.88;5166157;28;20199;-67
2022/02/08 06:03:40;;;;;;;4.87;3.53;;;2.80;99.90;;;3.41;76.83;99365.81;5163882;28;20324;-69
2022/02/08 06:06:14;;;;;;;6.67;3.30;;;2.80;99.90;;;3.51;76.05;99363.53;5166857;28;20214;-69
2022/02/08 06:08:47;;;;;;;5.83;3.43;;;2.80;99.90;;;3.43;74.63;99364.34;5166979;28;20207;-68
2022/02/08 06:11:22;;;;;;;5.90;3.57;;;2.90;99.90;;;3.63;74.84;99358.91;5165683;28;20676;-69
2022/02/08 06:13:58;;;;;;;8.80;3.20;;;2.90;99.90;;;3.64;75.38;99354.78;5166583;28;20229;-69
2022/02/08 06:16:31;;;;;;;7.87;3.80;;;3.00;99.90;;;3.81;74.83;99362.56;5160408;28;20202;-69
2022/02/08 06:19:07;;;;;;;6.70;3.60;;;3.00;99.90;;;3.87;74.66;99350.56;5165485;28;20210;-67
2022/02/08 06:21:41;;;;;;;5.00;3.27;;;3.10;99.90;;;3.87;74.87;99355.63;5165351;28;20673;-67
2022/02/08 06:24:14;;;;;;;5.60;3.90;;;3.20;99.90;;;3.89;74.97;99351.59;5162600;28;20443;-67
2022/02/08 06:26:47;;;;;;;5.67;3.80;;;3.10;99.90;;;3.84;75.06;99362.88;5164957;28;20205;-67
2022/02/08 06:29:23;;;;;;;4.77;3.70;;;3.10;99.90;;;3.86;75.56;99353.78;5165304;28;20594;-69
2022/02/08 06:31:56;;;;;;;5.13;3.33;;;3.10;99.90;;;4.07;74.29;99358.63;5166142;28;20213;-69
2022/02/08 06:34:31;;;;;;;7.57;3.47;;;3.20;99.90;;;3.98;74.53;99361.81;5165153;28;20694;-69
2022/02/08 06:37:10;;;;;;;6.33;3.30;;;3.20;99.90;;;3.88;75.64;99367.50;5162728;28;20215;-69
2022/02/08 06:39:43;;;;;;;6.53;3.60;;;3.20;99.90;;;3.97;74.67;99365.97;5160235;28;20201;-68
2022/02/08 06:42:16;;;;;;;5.40;3.93;;;3.20;99.90;;;3.92;75.25;99358.63;5162489;28;20228;-69
2022/02/08 06:44:49;;;;;;;6.13;3.60;;;3.10;99.90;;;4.04;74.47;99365.91;5166038;28;20411;-68
2022/02/08 06:47:23;;;;;;;6.03;3.40;;;3.20;99.90;;;4.18;73.75;99369.91;5164726;28;20208;-68
2022/02/08 06:49:56;;;;;;;6.40;3.40;;;3.30;99.90;;;4.20;73.38;99367.50;5161372;28;20195;-67
2022/02/08 06:52:30;;;;;;;6.20;3.83;;;3.40;99.90;;;4.03;73.39;99368.25;5162336;28;20238;-68
2022/02/08 06:55:07;;;;;;;8.03;3.93;;;3.40;99.90;;;4.13;74.13;99377.72;5160164;28;20597;-68
2022/02/08 06:57:50;;;;;;;3.80;3.30;;;3.40;99.90;;;4.07;73.72;99378.88;5164805;28;20709;-68
2022/02/08 07:00:29;;;;;;;5.83;3.40;;;3.40;99.90;;;4.10;74.23;99390.06;5160352;28;20685;-68
2022/02/08 07:03:10;;;;;;;8.00;3.73;;;3.40;99.90;;;4.09;74.22;99388.25;5159864;28;20197;-68
2022/02/08 07:05:44;;;;;;;5.07;3.57;;;3.40;99.90;;;4.16;74.79;99391.59;5163449;28;20205;-68
2022/02/08 07:08:18;;;;;;;7.63;3.90;;;3.40;99.90;;;4.17;74.61;99398.44;5160627;28;20214;-68
2022/02/08 07:10:51;;;;;;;7.00;4.40;;;3.50;99.90;;;4.21;73.61;99404.75;5161098;28;20204;-68
2022/02/08 07:13:24;;;;;;;5.93;3.60;;;3.50;99.90;;;4.13;73.68;99400.50;5160451;28;20344;-68
2022/02/08 07:15:57;;;;;;;8.20;4.00;;;3.60;99.90;;;4.25;74.32;99406.84;5165628;28;20206;-69
2022/02/08 07:18:30;;;;;;;7.03;3.90;;;3.60;99.90;;;4.24;73.68;99405.06;5161057;28;20681;-68
2022/02/08 07:21:03;;;;;;;7.57;3.53;;;3.60;99.90;;;4.23;74.16;99404.16;5159357;28;20214;-68
2022/02/08 07:23:38;;;;;;;6.87;3.47;;;3.60;99.90;;;4.33;74.63;99407.69;5168030;28;20316;-67
2022/02/08 07:26:13;;;;;;;7.87;3.93;;;3.60;99.90;;;4.41;73.35;99406.88;5161527;28;20194;-68
2022/02/08 07:28:46;;;;;;;6.47;3.40;;;3.70;99.90;;;4.43;74.60;99412.97;5163514;28;20211;-68
2022/02/08 07:31:21;;;;;;;7.33;3.60;;;3.70;99.90;;;4.47;74.43;99398.28;5162900;28;20207;-66
2022/02/08 07:33:59;;;;;;;5.73;3.47;;;3.80;99.90;;;4.42;73.90;99401.94;5165828;28;20716;-69
2022/02/08 07:36:40;;;;;;;5.03;3.40;;;3.80;99.90;;;4.53;74.17;99395.50;5163314;28;20198;-68
2022/02/08 07:39:23;;;;;;;6.77;3.87;;;3.80;99.90;;;4.60;74.31;99400.44;5159644;28;20207;-68
2022/02/08 07:41:56;;;;;;;5.23;3.97;;;3.90;99.90;;;4.60;74.20;99392.84;5162932;28;20692;-67
2022/02/08 07:44:29;;;;;;;6.43;4.10;;;3.90;99.90;;;4.67;73.31;99396.94;5164135;28;20698;-69
2022/02/08 07:47:03;;;;;;;8.00;4.37;;;4.00;99.90;;;4.78;72.51;99393.91;5164931;28;20853;-68
2022/02/08 07:49:39;;;;;;;7.50;4.10;;;4.10;99.90;;;4.84;73.73;99389.47;5171057;28;20646;-68
2022/02/08 07:52:12;;;;;;;6.60;3.70;;;4.20;99.90;;;5.05;72.66;99394.94;5165526;28;20199;-69
2022/02/08 07:54:46;;;;;;;10.73;3.50;;;4.30;99.90;;;5.15;71.62;99403.66;5172020;28;20221;-69
2022/02/08 07:57:20;;;;;;;7.90;4.00;;;4.30;99.90;;;5.15;72.31;99390.06;5165876;28;20191;-69
2022/02/08 07:59:53;;;;;;;9.03;3.67;;;4.40;99.90;;;5.32;70.45;99397.78;5165615;28;20205;-69
2022/02/08 08:02:26;;;;;;;5.93;3.70;;;4.50;99.90;;;5.34;70.31;99401.34;5165410;28;20305;-70
2022/02/08 08:04:59;;;;;;;7.17;3.67;;;4.50;99.90;;;5.40;70.39;99401.09;5164127;28;20234;-68
2022/02/08 08:07:32;;;;;;;7.47;3.80;;;4.60;99.90;;;5.37;70.71;99396.59;5165305;28;20616;-69
2022/02/08 08:10:08;;;;;;;6.73;4.10;;;4.60;99.90;;;5.34;70.65;99401.34;5165283;28;20210;-68
2022/02/08 08:12:46;;;;;;;8.30;4.10;;;4.60;99.90;;;5.46;71.09;99398.28;5166615;28;20598;-70
2022/02/08 08:15:33;;;;;;;9.37;3.47;;;4.60;99.90;;;5.57;70.21;99395.19;5150038;28;20223;-70
2022/02/08 08:18:24;;;;;;;8.03;3.50;;;4.70;99.90;;;5.60;70.67;99409.06;5165558;28;20655;-70
2022/02/08 08:20:57;;;;;;;6.33;3.57;;;4.70;99.90;;;5.58;71.46;99408.03;5165169;28;20184;-68
2022/02/08 08:23:30;;;;;;;11.70;3.90;;;4.70;99.90;;;5.54;71.40;99412.63;5165226;28;20223;-68
2022/02/08 08:26:05;;;;;;;8.60;3.63;;;4.70;99.90;;;5.50;72.40;99398.75;5169193;28;20669;-69
2022/02/08 08:28:39;;;;;;;6.33;3.77;;;4.80;99.90;;;5.54;73.07;99395.78;5169432;28;20241;-69
2022/02/08 08:31:14;;;;;;;5.93;3.63;;;4.80;99.90;;;5.56;73.45;99401.03;5163936;28;20217;-67
2022/02/08 08:34:07;;;;;;;4.70;3.67;;;4.80;99.90;;;5.64;72.82;99395.09;5162107;28;20571;-68
2022/02/08 08:36:40;;;;;;;8.13;3.80;;;4.80;99.90;;;5.63;72.15;99395.81;5164374;28;20268;-67
2022/02/08 08:39:18;;;;;;;8.40;3.90;;;4.80;99.90;;;5.64;72.06;99392.56;5163981;28;20200;-67
2022/02/08 08:42:08;;;;;;;6.07;3.63;;;4.80;99.90;;;5.67;72.39;99387.78;5163108;28;20655;-67
2022/02/08 08:45:17;;;;;;;9.60;4.30;;;4.90;99.90;;;5.66;71.46;99383.44;5158838;28;20219;-68
2022/02/08 08:50:54;;;;;;;8.27;3.83;;;4.90;99.90;;;5.79;71.49;99388.13;5157033;28;20207;-67
2022/02/08 08:53:27;;;;;;;6.00;3.67;;;4.90;99.90;;;6.03;69.04;99385.50;5161786;28;20234;-69
2022/02/08 08:56:00;;;;;;;9.10;4.27;;;5.00;99.90;;;6.06;68.36;99379.84;5164391;28;20203;-70
2022/02/08 08:58:38;;;;;;;11.27;4.03;;;5.20;99.90;;;5.98;69.62;99383.25;5159318;28;20576;-69
2022/02/08 09:01:12;;;;;;;6.90;3.93;;;5.20;99.90;;;6.00;69.41;99375.03;5163432;28;20297;-70
2022/02/08 09:03:47;;;;;;;6.93;3.97;;;5.20;99.90;;;6.01;70.17;99375.94;5162680;28;20227;-69
2022/02/08 09:06:26;;;;;;;7.07;4.07;;;5.10;99.90;;;5.96;70.40;99378.03;5161489;28;20443;-70
2022/02/08 09:09:00;;;;;;;8.20;3.87;;;5.10;99.90;;;5.98;69.45;99376.56;5166654;28;20217;-68
2022/02/08 09:11:48;;;;;;;8.47;3.47;;;5.10;99.90;;;6.11;68.66;99373.56;5164150;28;20207;-69
2022/02/08 09:14:36;;;;;;;8.20;3.70;;;5.10;99.90;;;6.09;68.21;99375.06;5163176;28;20270;-67
2022/02/08 09:20:23;;;;;;;10.50;4.33;;;5.20;99.90;;;6.27;68.91;99371.81;5154966;28;20215;-70
2022/02/08 09:25:57;;;;;;;5.13;3.60;;;5.40;99.90;;;6.55;68.33;99369.41;5162721;28;20623;-69
2022/02/08 09:28:40;;;;;;;5.37;3.37;;;5.60;99.90;;;6.69;67.27;99364.00;5166549;28;20221;-68
2022/02/08 09:31:18;;;;;;;5.40;3.67;;;5.70;99.90;;;6.75;67.08;99369.69;5163821;28;20219;-69
2022/02/08 09:33:51;;;;;;;6.53;3.97;;;5.70;99.90;;;6.83;67.61;99372.06;5163544;28;20721;-69
2022/02/08 09:36:26;;;;;;;8.97;3.53;;;5.80;99.90;;;6.86;66.85;99364.75;5168351;28;20203;-68
2022/02/08 09:38:59;;;;;;;6.23;3.53;;;5.90;99.90;;;6.99;66.32;99362.63;5167519;28;20202;-69
2022/02/08 09:41:35;;;;;;;6.33;3.80;;;5.90;99.90;;;7.05;66.38;99360.66;5163213;28;20570;-71
2022/02/08 09:44:11;;;;;;;9.10;4.07;;;6.10;99.90;;;7.25;65.00;99366.75;5167650;28;20222;-70
2022/02/08 09:46:48;;;;;;;7.10;3.80;;;6.20;99.90;;;7.25;64.61;99364.19;5166015;28;20282;-69
2022/02/08 09:49:22;;;;;;;6.37;3.73;;;6.30;99.90;;;7.31;64.62;99360.56;5162133;28;20213;-69
2022/02/08 09:51:56;;;;;;;8.73;3.43;;;6.30;99.90;;;7.40;64.01;99355.44;5163579;28;20203;-69
2022/02/08 09:54:30;;;;;;;7.83;3.60;;;6.40;99.90;;;7.42;64.13;99359.03;5165998;28;20235;-69
2022/02/08 09:57:04;;;;;;;9.90;3.90;;;6.50;99.90;;;7.45;64.48;99354.25;5163704;28;20215;-70
2022/02/08 09:59:37;;;;;;;7.40;3.93;;;6.60;99.90;;;7.54;62.92;99354.19;5163661;28;20200;-69
2022/02/08 10:02:18;;;;;;;7.50;3.60;;;6.60;99.90;;;7.68;62.91;99352.16;5164207;28;20200;-69
2022/02/08 10:05:01;;;;;;;8.40;3.70;;;6.80;99.90;;;7.92;62.63;99344.09;5166228;28;20227;-70
2022/02/08 10:07:36;;;;;;;8.70;3.50;;;6.90;99.90;;;7.85;61.28;99338.44;5166850;28;20207;-70
2022/02/08 10:10:12;;;;;;;6.13;3.17;;;7.10;99.90;;;7.89;61.55;99339.63;5165059;28;20199;-69
2022/02/08 10:13:02;;;;;;;8.63;3.80;;;7.10;99.90;;;7.93;60.74;99344.25;5164626;28;21809;-69
2022/02/08 10:19:07;;;;;;;6.27;3.93;;;7.40;99.90;;;8.27;59.71;99339.63;5165288;28;20286;-68
2022/02/08 10:21:45;;;;;;;9.73;4.23;;;7.50;99.90;;;8.44;59.87;99339.56;5166754;28;20203;-67
2022/02/08 10:24:21;;;;;;;7.30;4.10;;;7.70;99.90;;;8.43;59.13;99337.75;5164843;28;20230;-68
2022/02/08 10:27:02;;;;;;;6.57;3.57;;;7.70;99.90;;;8.52;58.77;99336.00;5168766;28;20297;-68
2022/02/08 10:29:44;;;;;;;6.43;3.90;;;7.70;99.90;;;8.51;59.18;99330.78;5163615;28;20269;-67
2022/02/08 10:38:22;;;;;;;7.27;3.70;;;7.80;99.90;;;8.65;58.63;99334.56;5169852;28;20570;-68
2022/02/08 10:40:56;;;;;;;6.17;3.40;;;7.90;99.90;;;8.66;58.38;99326.16;5164176;28;20195;-67
2022/02/08 10:43:32;;;;;;;6.83;3.30;;;7.80;99.90;;;8.84;58.04;99321.75;5164273;28;20302;-67
2022/02/08 10:46:06;;;;;;;7.23;3.33;;;8.00;99.90;;;8.96;57.10;99330.50;5165135;28;20199;-67
2022/02/08 10:48:39;;;;;;;5.33;3.23;;;8.20;99.90;;;9.12;57.77;99325.06;5160682;28;20203;-67
2022/02/08 10:51:15;;;;;;;3.50;2.70;;;8.40;99.90;;;9.13;57.53;99337.97;5165402;28;20207;-67
2022/02/08 10:53:57;;;;;;;6.77;3.40;;;8.30;99.90;;;9.24;55.57;99331.22;5162046;28;20233;-67
2022/02/08 10:56:34;;;;;;;5.57;2.97;;;8.50;99.90;;;9.20;56.79;99340.25;5164287;28;20214;-68
2022/02/08 10:59:16;;;;;;;6.87;3.47;;;8.30;99.90;;;9.27;55.30;99333.13;5164946;28;20195;-68
2022/02/08 11:02:01;;;;;;;8.00;3.70;;;8.30;99.90;;;9.18;55.80;99323.03;5165306;28;20209;-67
2022/02/08 11:04:48;;;;;;;4.67;2.80;;;8.20;99.90;;;9.18;55.71;99328.13;5160562;28;20606;-68
2022/02/08 11:07:55;;;;;;;9.33;3.60;;;8.20;99.90;;;9.08;56.70;99313.72;5158775;28;20199;-68
2022/02/08 11:10:48;;;;;;;4.23;3.10;;;8.20;99.90;;;9.32;56.80;99319.13;5164056;28;20207;-68
2022/02/08 11:13:36;;;;;;;5.47;3.20;;;8.20;99.90;;;9.27;57.45;99310.16;5165018;28;20241;-68
2022/02/08 11:16:21;;;;;;;5.07;3.30;;;8.20;99.90;;;9.38;56.85;99310.31;5164354;28;20590;-68
2022/02/08 11:19:27;;;;;;;7.38;3.33;;;8.40;99.90;;;9.55;57.16;99313.41;5162814;28;20210;-68
2022/02/08 11:22:06;;;;;;;6.03;2.97;;;8.50;99.90;;;9.66;57.84;99310.09;5162194;28;20203;-68
2022/02/08 11:24:51;;;;;;;5.93;3.05;;;8.60;99.90;;;9.80;56.59;99307.03;5162967;28;20226;-68
2022/02/08 11:27:24;;;;;;;5.32;3.03;;;8.80;99.90;;;9.78;56.25;99307.69;5159226;28;20200;-68
2022/02/08 11:30:03;;;;;;;5.97;3.58;;;8.70;99.90;;;9.78;56.50;99305.13;5161450;28;20287;-68
2022/02/08 11:32:52;;;;;;;5.53;3.05;;;8.70;99.90;;;9.85;56.65;99302.34;5158603;28;20191;-67
2022/02/08 11:44:45;;;;;;;6.47;3.35;;;8.90;99.90;;;9.92;57.60;99302.06;5163373;28;20219;-69
2022/02/08 11:47:34;;;;;;;7.90;3.33;;;8.90;99.90;;;9.79;57.84;99300.16;5163936;28;20650;-67
2022/02/08 11:50:40;;;;;;;8.77;3.17;;;8.80;99.90;;;9.77;58.09;99301.69;5161706;28;20203;-69
2022/02/08 11:53:27;;;;;;;4.95;3.22;;;8.80;99.90;;;9.77;58.27;99300.81;5159577;28;20243;-67
2022/02/08 11:59:03;;;;;;;5.05;3.17;;;8.70;99.90;;;9.67;60.59;99291.47;5147495;28;20199;-71
2022/02/08 12:02:00;;;;;;;4.43;3.13;;;8.70;99.90;;;9.79;58.54;99297.63;5163291;28;20629;-68
2022/02/08 12:04:45;;;;;;;5.68;3.20;;;8.80;99.90;;;9.60;59.86;99292.63;5165681;28;20241;-68
2022/02/08 12:07:19;;;;;;;5.35;3.00;;;8.70;99.90;;;9.72;61.07;99295.28;5161434;28;20287;-69
2022/02/08 12:09:59;;;;;;;5.80;2.60;;;8.70;99.90;;;9.79;60.37;99289.06;5163453;28;20210;-67
2022/02/08 12:28:12;;;;;;;4.53;3.15;;;8.90;99.90;;;9.86;61.41;99279.47;5163117;28;20199;-68
2022/02/08 12:33:05;;;;;;;4.22;2.88;;;9.00;99.90;;;10.01;60.16;99276.38;5163154;28;20202;-68
2022/02/08 12:35:57;;;;;;;5.35;3.10;;;9.00;99.90;;;10.05;59.45;99273.34;5164469;28;20315;-67
2022/02/08 12:50:40;;;;;;;4.53;2.88;;;8.80;99.90;;;9.89;59.94;99274.59;5162428;28;20201;-67
2022/02/08 12:56:20;;;;;;;6.10;2.90;;;8.70;99.90;;;9.70;61.93;99268.78;5113664;28;20259;-68
2022/02/08 12:59:08;;;;;;;4.10;2.58;;;8.70;99.90;;;9.82;60.73;99267.22;5159815;28;20670;-67
2022/02/08 13:04:52;;;;;;;4.03;2.50;;;8.70;99.90;;;9.67;62.13;99271.97;5135590;28;20233;-67
2022/02/08 14:02:02;;;;;;;6.53;3.30;;;8.90;99.90;;;9.82;65.16;99198.28;5163750;28;20192;-70
2022/02/08 14:07:30;;;;;;;5.70;3.40;;;8.80;99.90;;;9.80;65.49;99204.03;5165480;28;20246;-69
2022/02/08 14:10:18;;;;;;;5.22;3.58;;;8.90;99.90;;;9.93;66.26;99202.59;5164794;28;20576;-70
2022/02/08 14:16:06;;;;;;;5.97;3.05;;;9.00;99.90;;;9.89;69.67;99207.31;5161857;28;20221;-70
2022/02/08 14:18:50;;;;;;;3.10;2.65;;;9.10;99.90;;;9.98;69.32;99194.41;5164353;28;20597;-69
2022/02/08 14:21:36;;;;;;;4.95;3.45;;;9.10;99.90;;;9.91;69.81;99199.03;5161502;28;20199;-69
2022/02/08 14:24:17;;;;;;;3.85;2.70;;;9.10;99.90;;;10.15;70.10;99204.31;5165937;28;20227;-71
2022/02/08 14:29:48;;;;;;;3.78;2.22;;;9.10;99.90;;;10.19;70.84;99193.59;5160817;28;20706;-69
2022/02/08 14:32:28;;;;;;;2.45;2.13;;;9.20;99.90;;;10.20;70.85;99187.69;5164712;28;20199;-69
2022/02/08 14:35:38;;;;;;;2.97;2.40;;;9.10;99.90;;;10.04;70.60;99194.88;5160389;28;20400;-69
2022/02/08 15:09:58;;;;;;;3.92;3.42;;;9.00;99.90;;;9.95;72.44;99206.94;5161048;28;20202;-69
2022/02/08 15:12:34;;;;;;;5.60;3.47;;;8.90;99.90;;;9.98;72.77;99195.28;5164847;28;20199;-68
2022/02/08 15:15:17;;;;;;;5.95;4.07;;;9.00;99.90;;;9.92;73.06;99194.78;5164909;28;20223;-68
2022/02/08 15:17:50;;;;;;;6.43;4.22;;;9.00;99.90;;;9.87;74.13;99197.00;5163632;28;20690;-69
2022/02/08 15:20:25;;;;;;;5.47;4.43;;;8.90;99.90;;;9.82;74.38;99203.38;5164019;28;20204;-69
2022/02/08 15:23:02;;;;;;;5.47;4.97;;;8.90;99.90;;;9.85;73.80;99210.41;5162867;28;20191;-69
2022/02/08 15:25:35;;;;;;;5.30;4.28;;;8.80;99.90;;;9.84;73.66;99206.97;5165262;28;20210;-68
2022/02/08 15:28:09;;;;;;;6.70;3.60;;;8.90;99.90;;;10.08;72.28;99205.50;5165267;28;20651;-69
2022/02/08 15:30:43;;;;;;;3.53;3.22;;;8.90;99.90;;;9.91;72.92;99213.44;5163370;28;20213;-69
2022/02/08 15:33:16;;;;;;;3.20;2.90;;;8.90;99.90;;;9.82;73.67;99208.50;5164205;28;20576;-68
2022/02/08 15:35:49;;;;;;;4.05;2.85;;;8.90;99.90;;;9.78;73.92;99206.44;5164525;28;20226;-69
2022/02/08 15:38:28;;;;;;;3.53;3.22;;;8.90;99.90;;;9.81;73.83;99216.91;5162813;28;20207;-69
2022/02/08 15:41:02;;;;;;;3.50;3.20;;;8.90;99.90;;;9.83;73.88;99211.94;5163446;28;20199;-69
2022/02/08 15:43:36;;;;;;;4.75;4.28;;;8.90;99.90;;;9.80;72.93;99215.13;5164652;28;20222;-69
2022/02/08 15:46:18;;;;;;;6.50;4.90;;;8.80;99.90;;;9.79;73.44;99223.56;5163265;28;20198;-69
2022/02/08 15:48:53;;;;;;;5.28;4.82;;;8.80;99.90;;;9.67;73.58;99218.34;5161886;28;20610;-69
2022/02/08 15:51:30;;;;;;;5.30;4.80;;;8.70;99.90;;;9.68;74.85;99224.34;5162573;28;20206;-69
2022/02/08 15:54:13;;;;;;;5.80;5.18;;;8.70;99.90;;;9.60;74.45;99217.69;5160403;28;20233;-69
2022/02/08 15:57:07;;;;;;;7.78;7.00;;;8.70;99.90;;;9.59;74.15;99213.38;5160879;28;20227;-69
2022/02/08 16:05:40;;;;;;;5.07;4.38;;;8.60;99.90;;;9.52;75.00;99216.16;5160476;28;20226;-69
2022/02/08 16:08:27;;;;;;;7.13;5.45;;;8.60;99.90;;;9.55;75.33;99222.41;5160454;28;20678;-69
2022/02/08 16:11:10;;;;;;;4.57;4.03;;;8.50;99.90;;;9.46;75.79;99232.75;5161113;28;20211;-69
2022/02/08 16:13:51;;;;;;;6.20;4.50;;;8.50;99.90;;;9.44;75.34;99239.41;5161035;28;20250;-69
2022/02/08 16:16:46;;;;;;;5.30;4.90;;;8.50;99.90;;;9.41;75.58;99236.59;5157568;28;20221;-69
2022/02/08 16:19:28;;;;;;;4.30;3.80;;;8.50;99.90;;;9.36;75.79;99239.53;5161776;28;20671;-69
2022/02/08 16:24:59;;;;;;;4.60;4.20;;;8.40;99.90;;;9.28;77.02;99238.88;5133950;28;20721;-69
2022/02/08 16:27:46;;;;;;;3.88;3.22;;;8.40;99.90;;;9.19;77.63;99235.56;5160128;28;20675;-69
2022/02/08 16:31:01;;;;;;;3.75;3.45;;;8.30;99.90;;;9.09;79.27;99240.63;5160964;28;20431;-69
2022/02/08 16:56:49;;;;;;;5.85;3.25;;;8.00;99.90;;;8.97;80.06;99274.53;5724223;23;20238;-69
2022/02/08 16:59:26;;;;;;;53.35;29.98;;;8.10;99.90;;;8.90;80.69;99277.31;5060288;29;20663;-68